createdAt,value
2022-09-07T00:01:40.314Z,9.65
2022-09-07T00:04:08.871Z,8.15
2022-09-07T00:06:35.806Z,9.05
2022-09-07T00:09:03.737Z,6.80
2022-09-07T00:13:57.340Z,4.57
2022-09-07T00:16:31.149Z,4.80
2022-09-07T00:19:00.440Z,4.05
2022-09-07T00:21:27.565Z,6.65
2022-09-07T00:23:54.286Z,4.65
2022-09-07T00:26:25.754Z,6.45
2022-09-07T00:28:53.099Z,7.00
2022-09-07T00:31:23.250Z,6.50
2022-09-07T00:33:51.883Z,5.22
2022-09-07T00:36:20.601Z,5.53
2022-09-07T00:38:47.624Z,3.63
2022-09-07T00:41:14.717Z,5.00
2022-09-07T00:43:48.764Z,3.40
2022-09-07T00:46:22.363Z,6.10
2022-09-07T00:49:03.162Z,3.35
2022-09-07T00:51:39.360Z,3.70
2022-09-07T00:54:10.505Z,4.70
2022-09-07T00:56:44.038Z,6.90
2022-09-07T00:59:14.160Z,3.83
2022-09-07T01:01:41.112Z,4.07
2022-09-07T01:04:08.962Z,6.97
2022-09-07T01:06:38.084Z,3.47
2022-09-07T01:09:11.078Z,4.15
2022-09-07T01:11:38.450Z,7.60
2022-09-07T01:14:10.213Z,4.00
2022-09-07T01:16:52.309Z,4.88
2022-09-07T01:19:34.739Z,2.80
2022-09-07T01:22:29.727Z,4.97
2022-09-07T01:24:59.337Z,5.75
2022-09-07T01:27:44.361Z,4.18
2022-09-07T01:30:23.341Z,3.20
2022-09-07T01:33:11.396Z,4.78
2022-09-07T01:35:50.295Z,4.40
2022-09-07T01:38:35.202Z,2.75
2022-09-07T01:41:09.107Z,3.88
2022-09-07T01:44:11.688Z,4.68
2022-09-07T01:46:49.800Z,4.95
2022-09-07T01:49:36.937Z,3.42
2022-09-07T01:52:15.077Z,6.18
2022-09-07T01:54:47.295Z,4.88
2022-09-07T01:57:19.367Z,5.25
2022-09-07T02:00:13.305Z,4.07
2022-09-07T02:02:45.916Z,4.40
2022-09-07T02:05:19.748Z,3.08
2022-09-07T02:08:13.392Z,5.13
2022-09-07T02:10:45.425Z,4.28
2022-09-07T02:13:21.090Z,3.20
2022-09-07T02:15:58.253Z,2.83
2022-09-07T02:18:29.706Z,4.75
2022-09-07T02:20:58.891Z,4.30
2022-09-07T02:23:30.654Z,3.10
2022-09-07T02:26:05.790Z,3.63
2022-09-07T02:28:35.503Z,4.82
2022-09-07T02:31:03.044Z,4.03
2022-09-07T02:33:30.026Z,3.75
2022-09-07T02:35:57.663Z,4.13
2022-09-07T02:38:25.113Z,3.38
2022-09-07T02:40:53.876Z,3.75
2022-09-07T02:43:22.955Z,4.20
2022-09-07T02:46:28.004Z,3.72
2022-09-07T02:49:06.260Z,3.90
2022-09-07T02:52:17.664Z,4.03
2022-09-07T02:55:10.971Z,4.30
2022-09-07T02:57:52.975Z,3.35
2022-09-07T03:00:26.089Z,4.45
2022-09-07T03:02:55.815Z,4.45
2022-09-07T03:06:04.196Z,4.85
2022-09-07T03:08:36.852Z,5.25
2022-09-07T03:11:07.437Z,3.75
2022-09-07T03:13:34.501Z,4.35
2022-09-07T03:16:01.295Z,4.53
2022-09-07T03:18:28.669Z,5.38
2022-09-07T03:20:55.444Z,5.78
2022-09-07T03:23:22.682Z,4.25
2022-09-07T03:25:49.521Z,4.53
2022-09-07T03:28:16.659Z,5.63
2022-09-07T03:30:47.331Z,4.87
2022-09-07T03:33:15.943Z,5.65
2022-09-07T03:35:56.569Z,6.63
2022-09-07T03:38:23.258Z,5.57
2022-09-07T03:41:03.586Z,6.68
2022-09-07T03:43:31.034Z,5.50
2022-09-07T03:46:02.945Z,5.20
2022-09-07T03:48:34.641Z,5.72
2022-09-07T03:51:06.623Z,5.05
2022-09-07T03:53:35.759Z,5.43
2022-09-07T03:56:08.665Z,5.38
2022-09-07T03:58:36.123Z,4.28
2022-09-07T04:01:08.789Z,5.15
2022-09-07T04:03:36.078Z,4.78
2022-09-07T04:06:04.438Z,4.90
2022-09-07T04:08:33.526Z,3.72
2022-09-07T04:11:01.648Z,5.63
2022-09-07T04:13:29.346Z,4.90
2022-09-07T04:15:56.449Z,4.93
2022-09-07T04:18:23.763Z,8.05
2022-09-07T04:20:50.865Z,3.85
2022-09-07T04:23:19.211Z,5.97
2022-09-07T04:25:49.976Z,6.22
2022-09-07T04:28:18.017Z,6.43
2022-09-07T04:30:45.114Z,19.98
2022-09-07T04:33:12.300Z,21.85
2022-09-07T04:35:40.656Z,5.47
2022-09-07T04:38:08.402Z,5.13
2022-09-07T04:40:36.047Z,11.65
2022-09-07T04:43:02.658Z,9.00
2022-09-07T04:45:29.284Z,12.82
2022-09-07T04:47:55.959Z,9.07
2022-09-07T04:50:24.179Z,11.23
2022-09-07T04:52:51.043Z,6.38
2022-09-07T04:55:17.737Z,6.00
2022-09-07T04:57:44.364Z,6.28
2022-09-07T05:00:11.703Z,9.40
2022-09-07T05:02:38.520Z,9.15
2022-09-07T05:05:06.409Z,21.98
2022-09-07T05:07:33.086Z,15.55
2022-09-07T05:09:59.792Z,7.50
2022-09-07T05:12:26.804Z,10.23
2022-09-07T05:14:53.977Z,10.03
2022-09-07T05:17:20.724Z,10.60
2022-09-07T05:19:48.307Z,8.18
2022-09-07T05:22:14.983Z,8.73
2022-09-07T05:24:41.669Z,8.15
2022-09-07T05:27:08.322Z,9.10
2022-09-07T05:32:21.923Z,7.47
2022-09-07T05:34:50.892Z,8.10
2022-09-07T05:37:19.126Z,7.18
2022-09-07T05:39:45.864Z,5.97
2022-09-07T05:42:12.578Z,8.35
2022-09-07T05:47:09.034Z,12.80
2022-09-07T05:49:35.903Z,14.43
2022-09-07T05:52:02.853Z,12.45
2022-09-07T05:54:29.462Z,15.23
2022-09-07T05:56:56.091Z,15.30
2022-09-07T05:59:22.749Z,19.27
2022-09-07T06:01:49.472Z,19.42
2022-09-07T06:04:16.306Z,15.60
2022-09-07T06:06:54.648Z,16.45
2022-09-07T06:09:31.544Z,17.95
2022-09-07T06:11:58.136Z,22.25
2022-09-07T06:14:25.100Z,18.17
2022-09-07T06:16:51.767Z,19.13
2022-09-07T06:19:18.520Z,22.40
2022-09-07T06:21:45.241Z,22.77
2022-09-07T06:24:11.898Z,26.25
2022-09-07T06:26:38.525Z,25.77
2022-09-07T06:29:05.182Z,28.13
2022-09-07T06:31:32.084Z,22.88
2022-09-07T06:33:58.892Z,26.02
2022-09-07T06:36:27.825Z,25.35
2022-09-07T06:38:55.865Z,26.67
2022-09-07T06:44:17.874Z,24.98
2022-09-07T06:49:26.596Z,26.05
2022-09-07T06:51:53.399Z,23.60
2022-09-07T06:57:09.245Z,26.92
2022-09-07T06:59:37.545Z,23.85
2022-09-07T07:02:05.816Z,22.60
2022-09-07T07:04:37.765Z,23.85
2022-09-07T07:07:10.832Z,23.33
2022-09-07T07:09:37.985Z,21.65
2022-09-07T07:12:04.691Z,24.88
2022-09-07T07:14:34.366Z,20.40
2022-09-07T07:17:02.277Z,22.80
2022-09-07T07:19:29.118Z,26.02
2022-09-07T07:22:29.701Z,22.90
2022-09-07T07:24:42.437Z,20.63
2022-09-07T07:27:09.063Z,18.27
2022-09-07T07:29:35.676Z,20.17
2022-09-07T07:32:02.670Z,19.77
2022-09-07T07:34:29.367Z,20.53
2022-09-07T07:36:56.236Z,19.92
2022-09-07T07:42:09.982Z,20.35
2022-09-07T07:44:36.749Z,18.23
2022-09-07T07:47:03.643Z,18.00
2022-09-07T07:49:31.112Z,20.55
2022-09-07T07:54:45.261Z,19.10
2022-09-07T07:57:11.954Z,15.00
2022-09-07T07:59:39.107Z,14.85
2022-09-07T08:02:08.882Z,15.45
2022-09-07T08:04:36.202Z,16.77
2022-09-07T08:07:09.440Z,13.23
2022-09-07T08:09:41.596Z,16.08
2022-09-07T08:12:11.388Z,14.85
2022-09-07T08:14:41.799Z,13.23
2022-09-07T08:17:14.356Z,13.48
2022-09-07T08:19:41.509Z,14.27
2022-09-07T08:22:09.411Z,9.10
2022-09-07T08:24:36.373Z,10.45
2022-09-07T08:27:03.685Z,9.53
2022-09-07T08:29:34.635Z,8.07
2022-09-07T08:32:06.548Z,12.52
2022-09-07T08:34:36.169Z,8.80
2022-09-07T08:37:03.347Z,7.18
2022-09-07T08:39:30.465Z,9.43
2022-09-07T08:42:11.356Z,9.75
2022-09-07T08:44:40.776Z,10.82
2022-09-07T08:47:28.520Z,7.28
2022-09-07T08:50:28.623Z,5.78
2022-09-07T08:53:14.154Z,5.93
2022-09-07T08:56:00.791Z,8.85
2022-09-07T08:58:49.551Z,5.27
2022-09-07T09:01:33.219Z,6.47
2022-09-07T09:04:18.001Z,6.40
2022-09-07T09:07:15.111Z,7.45
2022-09-07T09:09:52.888Z,6.03
2022-09-07T09:12:37.504Z,6.53
2022-09-07T09:15:10.421Z,7.05
2022-09-07T09:18:01.623Z,6.03
2022-09-07T09:20:46.305Z,7.50
2022-09-07T10:48:37.645Z,6.35
2022-09-07T10:51:14.471Z,3.65
2022-09-07T10:57:09.336Z,5.50
2022-09-07T11:06:09.617Z,5.10
2022-09-07T11:12:01.753Z,2.72
2022-09-07T11:14:36.553Z,1.83
2022-09-07T11:17:12.618Z,4.03
2022-09-07T11:19:50.278Z,5.07
2022-09-07T11:22:28.159Z,2.78
2022-09-07T11:25:31.055Z,3.10
2022-09-07T11:28:14.325Z,3.05
2022-09-07T11:30:47.592Z,5.60
2022-09-07T11:33:38.936Z,2.83
2022-09-07T11:36:17.904Z,2.75
2022-09-07T11:39:03.322Z,4.75
2022-09-07T11:41:34.102Z,29.52
2022-09-07T11:44:18.875Z,6.53
2022-09-07T11:46:49.216Z,2.85
2022-09-07T11:49:21.270Z,4.82
2022-09-07T11:51:56.640Z,6.60
2022-09-07T11:54:44.861Z,6.47
2022-09-07T11:57:14.739Z,5.85
2022-09-07T11:59:44.320Z,3.22
2022-09-07T12:02:57.679Z,2.78
2022-09-07T12:05:25.082Z,3.58
2022-09-07T12:08:14.726Z,2.72
2022-09-07T12:10:56.560Z,2.25
2022-09-07T12:13:44.594Z,6.88
2022-09-07T12:16:14.424Z,3.05
2022-09-07T12:19:13.675Z,5.07
2022-09-07T12:21:52.602Z,4.10
2022-09-07T12:24:40.121Z,3.25
2022-09-07T12:27:11.615Z,3.55
2022-09-07T12:29:45.187Z,2.30
2022-09-07T12:34:59.023Z,3.33
2022-09-07T12:37:25.605Z,1.20
2022-09-07T12:40:30.681Z,1.37
2022-09-07T12:43:48.112Z,2.22
2022-09-07T12:46:34.888Z,2.58
2022-09-07T12:49:07.965Z,2.97
2022-09-07T12:54:36.563Z,2.42
2022-09-07T13:00:06.556Z,2.00
2022-09-07T13:02:36.279Z,7.50
2022-09-07T13:05:06.309Z,3.20
2022-09-07T13:07:35.987Z,3.55
2022-09-07T13:10:05.547Z,5.57
2022-09-07T13:15:41.961Z,3.55
2022-09-07T13:18:34.897Z,2.53
2022-09-07T13:21:07.850Z,2.63
2022-09-07T13:23:39.020Z,3.50
2022-09-07T13:26:09.168Z,4.72
2022-09-07T13:29:02.197Z,3.67
2022-09-07T13:31:57.146Z,2.90
2022-09-07T13:34:33.622Z,3.67
2022-09-07T13:37:02.456Z,2.85
2022-09-07T13:39:37.929Z,2.95
2022-09-07T13:42:04.834Z,2.33
2022-09-07T13:44:35.080Z,3.95
2022-09-07T13:47:32.647Z,1.30
2022-09-07T13:50:16.834Z,4.55
2022-09-07T13:53:21.819Z,2.08
2022-09-07T13:56:37.716Z,1.38
2022-09-07T13:59:32.000Z,1.77
2022-09-07T14:01:59.049Z,2.17
2022-09-07T14:04:34.684Z,2.90
2022-09-07T14:07:14.893Z,2.38
2022-09-07T14:09:42.143Z,2.55
2022-09-07T14:12:20.706Z,3.90
2022-09-07T14:15:09.191Z,3.67
2022-09-07T14:17:36.421Z,3.40
2022-09-07T14:20:04.097Z,3.28
2022-09-07T14:22:35.428Z,3.83
2022-09-07T14:25:05.925Z,4.47
2022-09-07T14:27:36.443Z,3.97
2022-09-07T14:30:21.500Z,5.40
2022-09-07T14:32:52.693Z,3.72
2022-09-07T14:35:22.433Z,2.75
2022-09-07T14:37:50.041Z,5.18
2022-09-07T14:40:22.745Z,3.53
2022-09-07T14:42:50.761Z,4.78
2022-09-07T14:45:23.132Z,4.45
2022-09-07T14:47:55.608Z,4.80
2022-09-07T14:51:00.976Z,4.57
2022-09-07T14:53:36.502Z,1.77
2022-09-07T14:56:10.161Z,5.03
2022-09-07T14:58:36.909Z,5.63
2022-09-07T15:04:02.835Z,3.58
2022-09-07T15:09:38.200Z,2.55
2022-09-07T15:12:19.111Z,4.18
2022-09-07T15:14:47.983Z,4.20
2022-09-07T15:20:48.145Z,2.42
2022-09-07T15:23:17.486Z,4.80
2022-09-07T15:25:50.998Z,2.85
2022-09-07T15:34:09.753Z,4.75
2022-09-07T15:36:42.738Z,6.75
2022-09-07T15:39:21.719Z,2.78
2022-09-07T15:41:48.871Z,7.63
2022-09-07T15:44:16.455Z,5.30
2022-09-07T15:47:43.290Z,5.65
2022-09-07T15:49:30.926Z,4.18
2022-09-07T15:52:05.410Z,4.47
2022-09-07T15:54:35.306Z,3.22
2022-09-07T15:59:50.550Z,6.72
2022-09-07T16:10:19.256Z,4.00
2022-09-07T16:13:03.890Z,3.20
2022-09-07T16:18:02.113Z,3.03
2022-09-07T16:20:32.055Z,5.05
2022-09-07T16:23:15.851Z,7.25
2022-09-07T16:25:55.012Z,2.17
2022-09-07T16:28:21.745Z,4.40
2022-09-07T16:30:48.502Z,7.20
2022-09-07T16:33:15.261Z,2.07
2022-09-07T16:35:42.072Z,5.60
2022-09-07T16:40:55.478Z,6.38
2022-09-07T16:43:22.147Z,6.20
2022-09-07T16:46:04.887Z,9.75
2022-09-07T16:48:33.298Z,3.80
2022-09-07T16:51:02.631Z,9.93
2022-09-07T16:53:31.535Z,27.25
2022-09-07T16:56:05.712Z,3.92
2022-09-07T16:58:47.324Z,7.40
2022-09-07T17:01:19.646Z,7.10
2022-09-07T17:03:46.968Z,3.72
2022-09-07T17:06:14.282Z,4.97
2022-09-07T17:08:42.522Z,2.78
2022-09-07T17:11:18.397Z,4.88
2022-09-07T17:13:46.266Z,4.32
2022-09-07T17:16:16.916Z,3.75
2022-09-07T17:24:04.489Z,4.22
2022-09-07T17:26:32.239Z,4.30
2022-09-07T17:34:20.539Z,3.55
2022-09-07T17:36:47.619Z,3.90
2022-09-07T17:39:16.831Z,5.90
2022-09-07T17:41:45.135Z,4.35
2022-09-07T17:44:11.980Z,4.90
2022-09-07T17:46:38.878Z,3.33
2022-09-07T17:49:08.086Z,4.67
2022-09-07T17:51:36.069Z,6.03
2022-09-07T17:54:09.662Z,9.35
2022-09-07T17:56:37.680Z,3.70
2022-09-07T18:01:51.252Z,4.28
2022-09-07T18:04:18.015Z,9.70
2022-09-07T18:06:44.732Z,3.05
2022-09-07T18:09:13.967Z,4.88
2022-09-07T18:11:47.339Z,5.93
2022-09-07T18:14:15.411Z,2.33
2022-09-07T18:16:43.842Z,6.07
2022-09-07T18:19:12.341Z,6.65
2022-09-07T18:21:41.984Z,3.70
2022-09-07T18:24:16.983Z,7.80
2022-09-07T18:26:49.692Z,13.93
2022-09-07T18:29:28.621Z,58.42
2022-09-07T18:31:58.350Z,6.32
2022-09-07T18:34:25.589Z,6.30
2022-09-07T18:36:52.386Z,10.57
2022-09-07T18:39:19.095Z,5.00
2022-09-07T18:41:45.838Z,7.10
2022-09-07T18:46:59.530Z,4.70
2022-09-07T18:49:26.226Z,7.65
2022-09-07T18:54:41.414Z,83.90
2022-09-07T18:57:08.289Z,89.88
2022-09-07T18:59:34.991Z,29.00
2022-09-07T19:02:04.768Z,12.23
2022-09-07T19:07:20.698Z,10.15
2022-09-07T19:09:48.279Z,10.05
2022-09-07T19:12:15.491Z,7.68
2022-09-07T19:14:42.433Z,9.10
2022-09-07T19:17:11.800Z,13.57
2022-09-07T19:19:39.676Z,4.28
2022-09-07T19:22:06.428Z,12.82
2022-09-07T19:24:33.408Z,17.65
2022-09-07T19:27:00.862Z,18.92
2022-09-07T19:32:07.799Z,6.70
2022-09-07T19:34:37.139Z,8.93
2022-09-07T19:37:05.723Z,13.05
2022-09-07T19:39:32.754Z,6.07
2022-09-07T19:42:00.021Z,10.10
2022-09-07T19:44:26.761Z,11.43
2022-09-07T19:46:53.588Z,47.65
2022-09-07T19:49:20.322Z,62.03
2022-09-07T19:51:50.222Z,6.85
2022-09-07T19:54:16.935Z,10.95
2022-09-07T19:56:44.804Z,3.28
2022-09-07T19:59:12.399Z,11.00
2022-09-07T20:01:40.625Z,12.13
2022-09-07T20:04:14.747Z,5.50
2022-09-07T20:06:42.822Z,12.63
2022-09-07T20:09:09.547Z,7.85
2022-09-07T20:11:37.077Z,15.95
2022-09-07T20:14:03.862Z,9.20
2022-09-07T20:16:31.290Z,9.60
2022-09-07T20:18:59.203Z,9.32
2022-09-07T20:23:52.872Z,6.78
2022-09-07T20:26:21.294Z,8.38
2022-09-07T20:29:05.924Z,8.68
2022-09-07T20:31:41.086Z,8.40
2022-09-07T20:34:09.644Z,9.40
2022-09-07T20:36:36.330Z,6.47
2022-09-07T20:39:04.491Z,13.57
2022-09-07T20:41:33.898Z,9.60
2022-09-07T20:44:03.188Z,8.10
2022-09-07T20:46:30.847Z,6.25
2022-09-07T20:48:58.131Z,10.77
2022-09-07T20:51:25.139Z,7.05
2022-09-07T20:53:52.112Z,12.75
2022-09-07T20:56:24.518Z,14.27
2022-09-07T20:59:02.066Z,7.28
2022-09-07T21:01:31.344Z,4.95
2022-09-07T21:03:59.427Z,4.15
2022-09-07T21:06:27.609Z,7.45
2022-09-07T21:08:56.946Z,10.18
2022-09-07T21:11:26.431Z,5.65
2022-09-07T21:13:58.350Z,5.57
2022-09-07T21:16:25.898Z,6.93
2022-09-07T21:18:58.315Z,7.40
2022-09-07T21:21:27.331Z,7.70
2022-09-07T21:23:59.670Z,7.35
2022-09-07T21:26:31.592Z,6.13
2022-09-07T21:29:00.707Z,14.85
2022-09-07T21:31:29.747Z,7.97
2022-09-07T21:33:58.799Z,7.57
2022-09-07T21:36:26.320Z,9.13
2022-09-07T21:38:54.351Z,3.85
2022-09-07T21:41:23.091Z,10.38
2022-09-07T21:44:01.273Z,7.97
2022-09-07T21:46:30.628Z,5.47
2022-09-07T21:48:58.331Z,8.07
2022-09-07T21:51:26.283Z,4.05
2022-09-07T21:53:54.946Z,5.80
2022-09-07T21:56:22.195Z,9.85
2022-09-07T21:58:52.691Z,4.57
2022-09-07T22:01:19.429Z,6.30
2022-09-07T22:03:48.109Z,5.20
2022-09-07T22:06:15.245Z,8.20
2022-09-07T22:08:42.320Z,5.60
2022-09-07T22:11:14.843Z,5.07
2022-09-07T22:13:44.180Z,10.93
2022-09-07T22:16:11.888Z,3.65
2022-09-07T22:18:40.218Z,6.97
2022-09-07T22:21:13.777Z,7.47
2022-09-07T22:23:43.365Z,4.38
2022-09-07T22:26:10.121Z,5.43
2022-09-07T22:28:37.747Z,5.88
2022-09-07T22:31:19.075Z,7.60
2022-09-07T22:33:47.275Z,3.75
2022-09-07T22:36:17.030Z,6.38
2022-09-07T22:38:46.027Z,9.32
2022-09-07T22:41:18.467Z,6.00
2022-09-07T22:43:45.877Z,8.88
2022-09-07T22:46:13.706Z,6.30
2022-09-07T22:48:41.360Z,4.20
2022-09-07T22:51:09.160Z,5.25
2022-09-07T22:56:09.626Z,6.03
2022-09-07T22:58:37.237Z,7.75
2022-09-07T23:01:05.179Z,6.60
2022-09-07T23:03:34.368Z,7.50
2022-09-07T23:06:01.555Z,6.05
2022-09-07T23:08:28.376Z,7.53
2022-09-07T23:10:55.554Z,6.97
2022-09-07T23:13:22.290Z,5.93
2022-09-07T23:15:49.783Z,5.07
2022-09-07T23:18:22.351Z,8.32
2022-09-07T23:20:49.034Z,6.72
2022-09-07T23:23:16.425Z,4.78
2022-09-07T23:25:43.211Z,6.95
2022-09-07T23:28:12.282Z,4.13
2022-09-07T23:30:43.048Z,6.20
2022-09-07T23:33:09.866Z,5.32
2022-09-07T23:35:36.504Z,5.35
2022-09-07T23:38:03.453Z,6.55
2022-09-07T23:40:31.818Z,8.30
2022-09-07T23:42:58.477Z,5.50
2022-09-07T23:45:25.241Z,8.27
2022-09-07T23:47:51.923Z,6.63
2022-09-07T23:50:18.716Z,5.18
2022-09-07T23:52:45.455Z,3.55
2022-09-07T23:55:12.162Z,8.57
2022-09-07T23:57:39.308Z,4.72
